Create Custom Reports and Graphics: Custom Report

North/Central Map

Map

15 Minute Data

South County Map

Map

15 Minute Data

Northern Sonoma County Latest

13 Stations

15 Minute Data | America/Los_Angeles
as of 9/20/19 2:03 PM PDT
Station Date Time Temp (°F) RH (%) Dew Pt (°F) Wind Spd (mph) Wind Dir (°) Wind Gust (mph) Latest Rain (In) Daily Rain (In) Daily Min Temp (°F) Daily Max Temp (°F)
Cooley-Rockpile 9/20/19 1400 76.9   4.0 29   9 42.2   3.4 3.0 WNW | 298 10.1   0.7 0.00 0.00 55.5   7.1 80.5   6.6
Cooley Lower Remote 9/20/19 1400 81.5   5.9 23   10 40.0   4.4 4.5 SE | 132 9.5   1.3 0.00 0.00 56.4   4.2 83.1   6.2
Rancho Alexander-Cloverdale 9/20/19 1400 85.5   6.8 23   9 43.8   2.9 4.2 W | 279 9.2   1.9 0.00 0.00 56.1   7.4 87.1   7.3
Ranch 38 (Cloverdale-SE) 9/20/19 1400 84.4   7.7 24   11 43.7   3.0 4.6 W | 279 10.7   0.8 0.00 0.00 55.2   3.3 85.9   6.9
Hoffman - Geyserville 9/20/19 1400 84.8   8.4 26   11 45.9   2.2 2.9 WNW | 286 8.8   0.3 0.00 0.00 53.1   1.9 85.4   8.1
Geyserville Ranch 3 9/20/19 1400 85.7   7.9 23   10 43.8   2.9 3.6 NW | 307 8.1   1.7 0.00 0.00 55.5   1.6 86.5   7.8
Ranch 40 (Geyserville-NE) 9/20/19 1400 84.5   6.4 26   9 45.5   2.1 5.2 SW | 220 12.1   3.1 0.00 0.00 54.3   2.3 87.0   5.8
Geyserville - S (Nervo Station) 9/20/19 1400 86.7   8.0 23   9 44.2   2.0 3.4 ENE | 64 8.1   1.3 0.00 0.00 54.7   2.5 88.1   8.4
River Oaks (Lytton) 9/20/19 1400 85.9   5.7 21   9 42.0   4.6 2.0 NNE | 22 5.5   0.4 0.00 0.00 47.6   1.5 87.4   6.4
Piccolo - Alexander Valley 9/20/19 1400 83.8   7.2 22   10 40.6   3.3 2.9 SSW | 193 7.7   1.5 0.00 0.00 43.7   3.0 84.2   6.9
Red Fan 9/20/19 1400 86.1   6.4 23   10 44.0   3.8 2.6 WNW | 294 11.2   2.6 0.00 0.00 45.5   0.5 87.1   6.5
Landslide 9/20/19 1400 86.2   5.7 22   8 43.3   3.4 4.4 SW | 222 9.2   2.8 0.00 0.00 44.1   1.0 87.1   5.7
Dry Creek Valley 9/20/19 1400 85.5   7.1 24   7 44.9   0.6 5.2 WNW | 290 8.7   2.8 0.00 0.00 51.8   1.0 86.7   7.6
Max     86.7 29 45.9 5.2 - 12.1 0.00 0.00 56.4 88.1
Avg     84.4 24 43.4 3.7 - 9.1 0.00 - - -
Min     76.9 21 40.0 2.0 - 5.5 0.00 0.00 43.7 80.5

Central Sonoma County Latest

22 Stations

15 Minute Data | America/Los_Angeles
as of 9/20/19 2:03 PM PDT
Station Date Time Temp (°F) RH (%) Dew Pt (°F) Wind Spd (mph) Wind Dir (°) Wind Gust (mph) Latest Rain (In) Daily Rain (In) Daily Min Temp (°F) Daily Max Temp (°F)
Healdsburg - S (Sodini) 9/20/19 1400 86.1   6.1 23   8 43.8   3.0 4.3 SW | 217 10.1   0.3 0.00 0.00 47.5   0.6 86.5   5.6
Ranch 8 (Windsor-NW) 9/20/19 1400 85.5   6.1 27   9 47.4   2.2 4.4 WNW | 290 10.8   4.5 0.00 0.00 53.1   2.4 86.8   5.7
Foothill Ranch 16 9/20/19 1400 87.8   8.8 22   11 44.4   2.9 3.7 W | 261 8.4   1.2 0.00 0.00 58.1   13.6 88.5   8.3
Airport Ranch 14 9/20/19 1400 86.0   7.8 23   11 43.6   3.7 1.8 W | 275 4.6   3.4 0.00 0.00 51.7   5.2 86.8   7.5
Silk Road 9/20/19 1400 85.3   6.8 24   9 44.4   2.5 3.4 NW | 316 7.1   0.3 0.00 0.00 45.1   0.8 85.7   6.5
Oak Meadows Ranch 5 9/20/19 1400 84.2   6.9 26   12 45.4   3.9 4.2 SW | 236 8.3   1.5 0.00 0.00 45.3   0.8 85.2   7.0
Laughlin Rd (Windsor-South) 9/20/19 1400 84.8   6.0 25   10 44.7   3.4 - - - 0.00 0.00 52.3   5.7 86.7   6.3
Barnes Rd (SE Fulton) 9/20/19 1400 86.3   10.0 21   15 41.5   6.1 4.0 WNW | 300 10.6   4.3 0.00 0.00 47.1   1.6 88.1   10.5
Crinella Ranch 21 9/20/19 1400 86.2   6.8 23   10 43.6   4.2 4.1 W | 274 9.4   1.6 0.00 0.00 46.5   0.4 87.0   6.4
Denner Ranch Base 9/20/19 1400 84.9   6.7 23   11 42.9   4.6 3.3 WSW | 248 8.6   0.9 0.00 0.00 46.9   1.9 86.0   7.1
Guerneville Road (Santa Rosa Plains) 9/20/19 1400 83.7   7.5 25   13 44.4   4.8 3.5 SW | 233 7.5   0.7 0.00 0.00 43.8   0.2 84.4   7.4
Rich Ranch (Guerneville Rd) 9/20/19 1400 87.6   7.6 21   10 43.1   3.8 - - - - - 43.5   0.2 88.2   7.6
Occidental Rd (Sebastopol) 9/20/19 1400 86.3   6.8 21   10 42.0   4.2 2.4 WNW | 302 8.8   2.4 0.00 0.00 44.6   0.7 87.5   7.1
Garrison Ranch 12 9/20/19 1400 86.6   6.9 23   10 44.2   3.5 2.1 S | 188 4.1   3.4 0.00 0.00 45.2   0.1 87.3   7.1
Laughlin Rd (Guerneville) 9/20/19 1400 87.2   6.7 26   7 48.3   0.9 5.7 S | 175 11.2   0.1 0.00 0.00 43.6   0.0 87.7   7.0
Korbel Winery 9/20/19 1400 85.6   7.8 24   9 44.3   2.1 4.1 SSE | 168 10.2   1.1 0.00 0.00 47.3   0.7 86.3   7.9
Shone Farms (Forestville) 9/20/19 1400 83.9   6.1 24   11 43.4   4.8 2.4 ENE | 72 7.6   0.2 0.00 0.00 49.2   1.1 87.2   7.9
Ranch 30 (Forestville-NE) 9/20/19 1400 85.1   8.4 26   11 46.0   2.2 2.2 N | 356 7.1   0.5 0.00 0.00 46.6   2.2 86.2   5.7
Dutton Ranch (Graton-West) 9/20/19 1400 85.5   6.5 20   12 40.4   6.7 2.4 NW | 318 6.8   1.0 0.00 0.00 43.8   0.9 86.8   6.1
Mill Station Rd (Graton-South) 9/20/19 1400 82.9   7.2 24   13 42.2   5.4 2.9 S | 176 6.4   0.5 0.00 0.00 41.5   0.9 83.7   7.5
Burnside Road (Sebastopol Hills) 9/20/19 1400 80.1   5.6 36   3 50.8   3.0 7.1 SW | 215 13.3   8.0 0.00 0.00 53.4   0.9 82.8   7.2
Hirsch Vineyards 9/20/19 1400 74.1   7.3 38   15 47.0   2.1 3.1 W | 261 5.7   3.8 0.00 0.00 62.4   11.7 76.1   6.6
Max     87.8 38 50.8 7.1 - 13.3 0.00 0.00 62.4 88.5
Avg     84.8 25 44.4 3.5 - 8.3 0.00 - - -
Min     74.1 20 40.4 1.8 - 4.1 0.00 0.00 41.5 76.1

Southern Sonoma County Latest

14 Stations

15 Minute Data | America/Los_Angeles
as of 9/20/19 2:03 PM PDT
Station Date Time Temp (°F) RH (%) Dew Pt (°F) Wind Spd (mph) Wind Dir (°) Wind Gust (mph) Latest Rain (In) Daily Rain (In) Daily Min Temp (°F) Daily Max Temp (°F)
Lower Bennett Valley 9/20/19 1400 84.8   7.5 23   12 43.3   4.5 4.6 NNW | 332 11.6   2.9 0.00 0.00 41.8   1.5 85.3   6.5
Kunde - Kenwood 9/20/19 1400 85.0   8.0 20   9 39.7   2.7 3.8 ENE | 70 9.2   3.0 0.00 0.00 42.2   2.8 85.7   8.0
Sonoma Valley (Bedrock) 9/20/19 1400 85.0   6.7 18   11 37.4   6.1 2.1 ENE | 73 7.8   1.3 0.00 0.00 47.7   1.6 85.7   6.4
Arnold (Sonoma) 9/20/19 1400 85.1   7.1 25   10 44.9   2.6 4.8 ESE | 122 9.7   0.2 0.00 0.00 46.7   2.1 85.8   6.8
Schellville 9/20/19 1400 86.2   7.7 25   9 45.9   1.9 3.7 SSE | 163 9.8   3.0 0.00 0.00 46.1   0.0 87.2   7.2
Napoli (Sonoma-SE) 9/20/19 1400 87.3   6.7 23   9 44.5   3.1 4.6 SSE | 165 10.1   3.0 0.00 0.00 45.3   2.4 88.1   6.6
Diamond R71 (Carneros) 9/20/19 1400 82.7   7.4 27   11 45.4   2.9 4.1 SSW | 204 9.6   0.0 0.00 0.00 56.4   3.7 83.3   6.7
Huichica Upper 9/20/19 1400 84.4   5.7 26   8 46.2   1.8 6.7 SSE | 147 12.0   3.6 - - 57.1   4.6 85.7   6.2
Huichica-Lower 9/20/19 1400 83.4   6.9 29   9 48.2   1.2 4.2 SSE | 154 11.1   1.6 0.00 0.00 47.1   2.2 84.1   5.0
Stony Point (West Rohnert Park) 9/20/19 1400 84.6   6.9 24   13 43.5   5.3 2.6 S | 177 10.1   1.2 0.00 0.00 41.3   1.1 85.5   6.7
Asellus (Penngrove) 9/20/19 1400 85.9   7.9 23   12 44.2   3.9 4.3 SSE | 159 8.7   0.9 0.00 0.00 52.2   7.8 86.3   7.6
Rodger's Creek 9/20/19 1400 81.6   7.1 27   11 44.3   2.9 3.2 ESE | 115 10.0   1.7 0.00 0.00 52.6   1.6 82.2   5.6
Frates R10 (East Petaluma) 9/20/19 1400 86.3   7.0 24   10 45.6   2.8 3.8 WNW | 288 9.2   2.6 0.00 0.00 47.2   1.8 86.8   6.5
Sleepy Hollow-Lakeville 9/20/19 1400 84.5   7.0 27   8 47.2   0.7 5.1 SE | 139 10.2   0.7 0.00 0.00 50.1   0.5 84.9   6.7
Max     87.3 29 48.2 6.7 - 12.0 0.00 0.00 57.1 88.1
Avg     84.8 24 44.3 4.1 - 9.9 0.00 - - -
Min     81.6 18 37.4 2.1 - 7.8 0.00 0.00 41.3 82.2